Time;durP1;ratioP1;P1;durP2;ratioP2;P2;SDS_P1;SDS_P2;PMS_P1;PMS_P2;Temp;Humidity;BMP_temperature;BMP_pressure;BME280_temperature;BME280_humidity;BME280_pressure;Samples;Min_cycle;Max_cycle;Signal;HPM_P1;HPM_P2
2023/01/07 00:01:20;;;;;;;15.15;11.05;;;;;;;19.81;56.46;102086.84;5056233;28;20045;-58
2023/01/07 00:03:49;;;;;;;18.70;12.00;;;;;;;19.80;56.31;102082.44;5056019;28;20063;-58
2023/01/07 00:06:25;;;;;;;12.90;10.48;;;;;;;19.80;56.06;102090.50;5056359;28;20399;-58
2023/01/07 00:08:54;;;;;;;12.82;10.30;;;;;;;19.79;56.28;102083.41;5056172;28;20049;-57
2023/01/07 00:11:25;;;;;;;14.18;11.20;;;;;;;19.78;56.14;102085.25;5055825;28;20049;-57
2023/01/07 00:13:54;;;;;;;13.35;10.57;;;;;;;19.77;56.04;102083.53;5056054;28;20513;-57
2023/01/07 00:16:25;;;;;;;14.23;11.32;;;;;;;19.75;55.91;102075.56;5056265;28;20041;-57
2023/01/07 00:18:54;;;;;;;14.60;10.77;;;;;;;19.75;55.87;102077.38;5054383;28;20048;-57
2023/01/07 00:21:22;;;;;;;14.13;10.80;;;;;;;19.75;55.84;102083.63;5055681;28;20498;-57
2023/01/07 00:24:01;;;;;;;12.70;11.07;;;;;;;19.75;55.81;102082.75;5054664;28;20402;-57
2023/01/07 00:26:32;;;;;;;12.27;10.60;;;;;;;19.74;55.83;102081.91;5055307;28;20049;-57
2023/01/07 00:28:59;;;;;;;13.00;10.63;;;;;;;19.74;55.56;102079.22;5055813;28;20057;-57
2023/01/07 00:31:29;;;;;;;12.82;11.15;;;;;;;19.72;55.58;102067.69;5055704;28;20044;-57
2023/01/07 00:36:39;;;;;;;13.95;11.25;;;;;;;19.70;55.46;102066.97;5055362;28;20045;-57
2023/01/07 00:39:13;;;;;;;12.65;10.63;;;;;;;19.70;55.55;102064.28;5055929;28;20060;-57
2023/01/07 00:44:28;;;;;;;12.85;10.75;;;;;;;19.71;55.24;102071.34;5050716;28;20060;-57
2023/01/07 00:46:56;;;;;;;11.65;10.27;;;;;;;19.70;55.32;102066.09;5034819;28;20045;-57
2023/01/07 00:49:24;;;;;;;13.70;10.50;;;;;;;19.69;55.20;102061.69;5035219;28;20057;-57
2023/01/07 00:51:52;;;;;;;13.32;10.25;;;;;;;19.70;55.17;102071.47;5037944;28;20053;-57
2023/01/07 00:54:19;;;;;;;12.57;10.70;;;;;;;19.69;55.16;102067.06;5055437;28;20049;-57
2023/01/07 00:56:47;;;;;;;13.50;10.10;;;;;;;19.68;55.17;102063.50;5054038;28;20057;-57
2023/01/07 00:59:14;;;;;;;12.13;9.32;;;;;;;19.68;54.95;102065.34;5053519;28;20049;-57
2023/01/07 01:01:42;;;;;;;15.15;11.18;;;;;;;19.68;54.86;102060.81;5054174;28;20052;-57
2023/01/07 01:04:10;;;;;;;12.45;9.90;;;;;;;19.68;54.88;102062.63;5054967;28;20052;-57
2023/01/07 01:06:37;;;;;;;13.57;10.80;;;;;;;19.68;55.03;102066.19;5055079;28;20494;-57
2023/01/07 01:09:06;;;;;;;12.25;10.60;;;;;;;19.68;54.81;102063.50;5053549;28;20048;-58
2023/01/07 01:11:33;;;;;;;12.15;9.63;;;;;;;19.68;54.77;102068.00;5054681;28;20048;-57
2023/01/07 01:14:01;;;;;;;11.43;9.98;;;;;;;19.67;54.72;102059.09;5055141;28;20052;-57
2023/01/07 01:16:28;;;;;;;14.10;9.48;;;;;;;19.68;54.79;102059.97;5054715;28;20045;-57
2023/01/07 01:18:55;;;;;;;13.52;10.30;;;;;;;19.67;54.73;102064.47;5053217;28;20053;-56
2023/01/07 01:21:23;;;;;;;11.00;9.68;;;;;;;19.68;54.64;102060.81;5054864;28;20053;-56
2023/01/07 01:23:50;;;;;;;11.98;9.73;;;;;;;19.67;54.82;102052.88;5053570;28;20041;-57
2023/01/07 01:26:17;;;;;;;11.73;10.00;;;;;;;19.67;54.62;102059.09;5053222;28;20056;-57
2023/01/07 01:28:45;;;;;;;11.60;9.50;;;;;;;19.66;54.56;102054.69;5037551;28;20056;-57
2023/01/07 01:31:18;;;;;;;11.43;9.20;;;;;;;19.66;54.60;102049.31;5053272;28;20107;-58
2023/01/07 01:33:52;;;;;;;11.13;9.32;;;;;;;19.66;54.65;102060.06;5054171;28;20048;-57
2023/01/07 01:36:20;;;;;;;10.60;9.50;;;;;;;19.66;54.63;102054.69;5053151;28;20041;-57
2023/01/07 01:38:47;;;;;;;12.63;10.05;;;;;;;19.67;54.58;102058.25;5052837;28;20053;-57
2023/01/07 01:41:17;;;;;;;12.10;9.60;;;;;;;19.66;54.71;102052.00;5053208;28;20687;-57
2023/01/07 01:43:47;;;;;;;11.50;10.30;;;;;;;19.66;54.47;102045.78;5053360;28;20053;-57
2023/01/07 01:46:32;;;;;;;11.85;9.50;;;;;;;19.66;54.58;102052.00;5040582;28;20064;-57
2023/01/07 01:49:02;;;;;;;10.75;9.35;;;;;;;19.65;54.54;102050.31;5034521;28;20053;-57
2023/01/07 01:51:36;;;;;;;11.68;9.48;;;;;;;19.65;54.59;102044.06;5034442;28;20064;-57
2023/01/07 01:54:09;;;;;;;11.70;9.68;;;;;;;19.65;54.48;102042.25;5032793;28;20057;-57
2023/01/07 01:56:42;;;;;;;11.25;9.43;;;;;;;19.65;54.52;102039.56;5032611;28;20054;-57
2023/01/07 01:59:16;;;;;;;10.57;8.75;;;;;;;19.66;54.47;102040.41;5032987;28;20054;-57
2023/01/07 02:01:44;;;;;;;14.30;9.13;;;;;;;19.64;54.65;102040.50;5033395;28;20503;-57
2023/01/07 02:04:18;;;;;;;11.38;8.98;;;;;;;19.64;54.65;102036.94;5033916;28;20052;-57
2023/01/07 02:06:54;;;;;;;11.38;9.05;;;;;;;19.64;54.36;102036.94;5032579;28;20191;-57
2023/01/07 02:09:23;;;;;;;9.52;8.50;;;;;;;19.63;54.34;102036.09;5033140;28;20061;-57
2023/01/07 02:12:09;;;;;;;10.70;8.65;;;;;;;19.63;54.45;102033.41;5052542;28;20057;-57
2023/01/07 02:14:52;;;;;;;13.85;9.27;;;;;;;19.63;54.48;102028.03;5052726;28;20045;-57
2023/01/07 02:17:56;;;;;;;10.40;8.70;;;;;;;19.63;54.38;102021.81;5054064;28;20426;-58
2023/01/07 02:20:37;;;;;;;12.15;9.38;;;;;;;19.63;54.36;102030.72;5032528;28;20513;-57
2023/01/07 02:23:23;;;;;;;10.55;8.82;;;;;;;19.63;54.36;102019.13;5032240;28;20076;-57
2023/01/07 02:26:21;;;;;;;10.80;8.82;;;;;;;19.63;54.36;102021.81;5032174;28;20412;-57
2023/01/07 02:28:49;;;;;;;10.82;9.23;;;;;;;19.63;54.52;102019.97;5033622;28;20049;-57
2023/01/07 02:31:41;;;;;;;12.10;9.27;;;;;;;19.63;54.44;102009.22;5033727;28;20065;-57
2023/01/07 02:34:18;;;;;;;10.40;7.70;;;;;;;19.64;54.55;102015.47;5031727;28;20049;-58
2023/01/07 02:37:17;;;;;;;9.23;8.30;;;;;;;19.63;54.51;102003.84;5032199;28;20050;-57
2023/01/07 02:39:57;;;;;;;11.15;8.82;;;;;;;19.63;54.54;102003.00;5031502;28;20057;-57
2023/01/07 02:42:36;;;;;;;10.20;9.07;;;;;;;19.63;54.55;101998.47;5032166;28;20064;-57
2023/01/07 02:45:08;;;;;;;10.55;8.25;;;;;;;19.63;54.51;102005.69;5033123;28;20048;-57
2023/01/07 02:47:40;;;;;;;9.93;8.55;;;;;;;19.64;54.60;101999.34;5030260;28;20506;-57
2023/01/07 02:50:08;;;;;;;11.02;8.85;;;;;;;19.63;54.51;101998.47;5032704;28;20056;-57
2023/01/07 02:52:36;;;;;;;10.60;8.57;;;;;;;19.63;54.71;101989.56;5039458;28;20483;-57
2023/01/07 02:55:11;;;;;;;9.88;8.07;;;;;;;19.63;54.69;101990.44;5053281;28;20048;-57
2023/01/07 02:57:42;;;;;;;10.88;8.38;;;;;;;19.63;54.69;101993.13;5052511;28;20049;-57
2023/01/07 03:00:40;;;;;;;9.77;8.60;;;;;;;19.63;54.71;101982.38;5053157;28;20060;-57
2023/01/07 03:03:24;;;;;;;10.93;8.45;;;;;;;19.62;54.55;101983.34;5053076;28;20498;-58
2023/01/07 03:06:16;;;;;;;10.80;8.52;;;;;;;19.62;54.75;101986.03;5053311;28;20045;-57
2023/01/07 03:09:19;;;;;;;10.70;8.40;;;;;;;19.61;54.60;101984.31;5053374;28;20478;-57
2023/01/07 03:12:12;;;;;;;11.68;8.57;;;;;;;19.62;54.70;101977.13;5052645;28;20434;-57
2023/01/07 03:14:45;;;;;;;10.02;7.90;;;;;;;19.62;54.81;101975.28;5052935;28;20482;-57
2023/01/07 03:17:19;;;;;;;9.02;8.02;;;;;;;19.62;54.70;101972.59;5051363;28;20045;-58
2023/01/07 03:19:53;;;;;;;10.82;7.95;;;;;;;19.62;54.67;101972.59;5052561;28;20167;-57
2023/01/07 03:22:25;;;;;;;8.75;7.78;;;;;;;19.62;54.80;101969.91;5051940;28;20048;-57
2023/01/07 03:24:55;;;;;;;10.98;8.13;;;;;;;19.62;54.87;101971.75;5052966;28;20064;-57
2023/01/07 03:27:26;;;;;;;11.15;8.10;;;;;;;19.62;54.83;101971.75;5052711;28;20049;-57
2023/01/07 03:29:54;;;;;;;10.63;8.02;;;;;;;19.61;54.78;101970.88;5053230;28;20485;-58
2023/01/07 03:32:29;;;;;;;11.20;7.57;;;;;;;19.61;54.79;101970.88;5051238;28;20057;-58
2023/01/07 03:34:56;;;;;;;10.40;8.20;;;;;;;19.61;54.84;101968.19;5052837;28;20053;-57
2023/01/07 03:37:27;;;;;;;9.48;7.88;;;;;;;19.61;54.84;101962.81;5051737;28;20124;-57
2023/01/07 03:39:57;;;;;;;10.60;8.32;;;;;;;19.61;54.91;101970.88;5052055;28;20608;-57
2023/01/07 03:42:38;;;;;;;10.80;7.82;;;;;;;19.61;54.92;101970.88;5051180;28;20178;-57
2023/01/07 03:45:16;;;;;;;8.80;7.55;;;;;;;19.61;54.79;101968.19;5051211;28;20045;-57
2023/01/07 03:47:46;;;;;;;9.20;7.80;;;;;;;19.62;54.77;101969.06;5043948;28;20045;-58
2023/01/07 03:50:15;;;;;;;9.25;7.72;;;;;;;19.61;54.84;101962.81;5030980;28;20057;-57
2023/01/07 03:52:44;;;;;;;9.40;7.25;;;;;;;19.61;54.96;101968.19;5031629;28;20062;-57
2023/01/07 03:55:12;;;;;;;9.45;7.97;;;;;;;19.60;54.90;101971.78;5031248;28;20510;-57
2023/01/07 03:57:40;;;;;;;8.70;7.72;;;;;;;19.61;54.83;101972.69;5033951;28;20052;-57
2023/01/07 04:00:10;;;;;;;12.27;7.40;;;;;;;19.61;54.85;101970.88;5036273;28;20072;-58
2023/01/07 04:02:41;;;;;;;;;;;;;;;19.61;54.95;101972.69;5044079;28;20060;-58
2023/01/07 04:05:16;;;;;;;9.95;7.45;;;;;;;19.61;54.81;101972.69;5036900;28;20287;-57
2023/01/07 04:07:44;;;;;;;8.32;6.85;;;;;;;19.60;55.02;101966.41;5034860;28;20049;-57
2023/01/07 04:10:11;;;;;;;8.75;7.18;;;;;;;19.61;54.82;101967.31;5042743;28;20040;-57
2023/01/07 04:12:39;;;;;;;9.27;7.22;;;;;;;19.61;54.99;101962.81;5055996;28;20052;-57
2023/01/07 04:15:07;;;;;;;10.18;7.50;;;;;;;19.61;54.92;101968.19;5055852;28;20049;-57
2023/01/07 04:17:34;;;;;;;8.73;7.20;;;;;;;19.61;55.03;101975.38;5055830;28;20463;-59
2023/01/07 04:20:02;;;;;;;10.25;7.07;;;;;;;19.60;55.16;101969.09;5054811;28;20057;-58
2023/01/07 04:22:30;;;;;;;11.30;7.72;;;;;;;19.61;55.00;101967.31;5056383;28;20049;-59
2023/01/07 04:24:57;;;;;;;9.32;7.13;;;;;;;19.61;55.06;101973.56;5056086;28;20508;-58
2023/01/07 04:27:25;;;;;;;8.73;6.65;;;;;;;19.61;55.01;101973.56;5054978;28;20045;-58
2023/01/07 04:29:52;;;;;;;8.65;6.95;;;;;;;19.61;55.07;101978.94;5054628;28;20049;-58
2023/01/07 04:32:20;;;;;;;8.40;6.88;;;;;;;19.61;54.99;101976.25;5055594;28;20049;-58
2023/01/07 04:34:47;;;;;;;7.90;6.53;;;;;;;19.61;55.13;101976.25;5056081;28;20045;-57
2023/01/07 04:37:14;;;;;;;8.93;6.53;;;;;;;19.61;55.02;101973.56;5054730;28;20041;-58
2023/01/07 04:39:42;;;;;;;7.60;6.80;;;;;;;19.61;54.87;101972.69;5054313;28;20052;-58
2023/01/07 04:42:09;;;;;;;9.10;7.80;;;;;;;19.61;54.86;101970.00;5054370;28;20057;-57
2023/01/07 04:44:37;;;;;;;8.13;6.55;;;;;;;19.60;54.97;101970.94;5054394;28;20053;-57
2023/01/07 04:47:05;;;;;;;7.07;6.35;;;;;;;19.60;54.95;101971.78;5054715;28;20118;-58
2023/01/07 04:49:32;;;;;;;9.18;7.05;;;;;;;19.60;54.96;101974.47;5036741;28;20483;-57
2023/01/07 04:51:59;;;;;;;7.85;6.40;;;;;;;19.61;55.06;101970.00;5034292;28;20049;-58
2023/01/07 04:54:27;;;;;;;7.57;5.60;;;;;;;19.60;55.06;101977.16;5047821;28;20053;-58
2023/01/07 04:56:55;;;;;;;8.38;6.70;;;;;;;19.61;54.88;101978.94;5054032;28;20049;-57
2023/01/07 04:59:23;;;;;;;9.43;7.10;;;;;;;19.60;54.98;101979.84;5054017;28;20048;-59
2023/01/07 05:01:52;;;;;;;8.48;6.57;;;;;;;19.61;55.04;101978.06;5054003;28;20049;-58
2023/01/07 05:04:19;;;;;;;9.13;7.70;;;;;;;19.59;55.21;101975.44;5054712;28;20050;-59
2023/01/07 05:06:47;;;;;;;9.38;7.32;;;;;;;19.59;55.19;101980.81;5055129;28;20048;-58
2023/01/07 05:09:14;;;;;;;9.70;6.28;;;;;;;19.60;55.24;101974.47;5052992;28;20053;-58
2023/01/07 05:11:42;;;;;;;8.77;6.40;;;;;;;19.59;54.94;101966.53;5053424;28;20072;-60
2023/01/07 05:14:12;;;;;;;8.80;6.72;;;;;;;19.60;55.12;101979.00;5053656;28;20060;-59
2023/01/07 05:16:40;;;;;;;8.20;6.72;;;;;;;19.60;55.19;101966.41;5053840;28;20060;-58
2023/01/07 05:19:10;;;;;;;7.47;6.30;;;;;;;19.60;55.28;101970.94;5053702;28;20386;-59
2023/01/07 05:21:42;;;;;;;10.07;6.90;;;;;;;19.60;55.26;101973.63;5053251;28;20057;-57
2023/01/07 05:24:10;;;;;;;7.47;5.75;;;;;;;19.59;55.25;101975.44;5053929;28;20059;-58
2023/01/07 05:26:39;;;;;;;7.63;6.47;;;;;;;19.59;55.06;101977.28;5053343;28;20049;-58
2023/01/07 05:29:08;;;;;;;9.35;6.10;;;;;;;19.59;54.99;101971.91;5053362;28;20055;-58
2023/01/07 05:31:37;;;;;;;7.78;6.00;;;;;;;19.59;55.18;101964.72;5053368;28;20053;-58
2023/01/07 05:34:04;;;;;;;7.68;6.03;;;;;;;19.60;55.17;101977.16;5053350;28;20049;-59
2023/01/07 05:36:32;;;;;;;9.60;6.00;;;;;;;19.60;55.15;101973.63;5052784;28;20414;-59
2023/01/07 05:39:00;;;;;;;8.30;6.28;;;;;;;19.58;54.98;101971.06;5053592;28;20049;-57
2023/01/07 05:41:28;;;;;;;6.70;6.00;;;;;;;19.58;55.00;101973.75;5052685;28;20049;-57
2023/01/07 05:43:55;;;;;;;7.95;5.95;;;;;;;19.59;54.85;101974.59;5053714;28;20512;-57
2023/01/07 05:46:23;;;;;;;7.15;6.18;;;;;;;19.59;54.89;101966.53;5054120;28;20048;-59
2023/01/07 05:48:53;;;;;;;7.50;5.75;;;;;;;19.58;55.02;101964.81;5050810;28;20041;-58
2023/01/07 05:51:20;;;;;;;7.07;5.25;;;;;;;19.59;54.85;101966.53;5033087;28;20048;-58
2023/01/07 05:53:47;;;;;;;7.15;5.55;;;;;;;19.58;54.87;101965.69;5033689;28;20057;-58
2023/01/07 05:56:15;;;;;;;5.90;5.30;;;;;;;19.59;54.74;101971.91;5033479;28;20053;-57
2023/01/07 05:58:42;;;;;;;7.25;5.85;;;;;;;19.58;54.73;101968.38;5033983;28;20412;-57
2023/01/07 06:01:09;;;;;;;7.07;5.72;;;;;;;19.60;54.88;101976.31;5033854;28;20472;-57
2023/01/07 06:03:37;;;;;;;5.93;4.70;;;;;;;19.60;54.82;101974.47;5033923;28;20368;-57
2023/01/07 06:06:07;;;;;;;6.82;5.43;;;;;;;19.59;54.77;101972.78;5034224;28;20041;-57
2023/01/07 06:08:36;;;;;;;9.43;6.00;;;;;;;19.60;54.76;101981.69;5033943;28;20045;-57
2023/01/07 06:11:06;;;;;;;7.05;5.15;;;;;;;19.59;54.61;101980.81;5047220;28;20451;-49
2023/01/07 06:13:34;;;;;;;6.70;5.20;;;;;;;19.59;54.77;101980.81;5054007;28;20486;-49
2023/01/07 06:16:05;;;;;;;6.35;4.78;;;;;;;19.59;54.47;101977.28;5053572;28;20053;-50
2023/01/07 06:18:33;;;;;;;6.32;5.00;;;;;;;19.59;54.70;101980.81;5053537;28;20041;-47
2023/01/07 06:21:01;;;;;;;6.07;5.03;;;;;;;19.58;54.64;101976.44;5052432;28;20048;-48
2023/01/07 06:23:30;;;;;;;6.18;5.03;;;;;;;19.59;54.56;101978.13;5053298;28;20052;-49
2023/01/07 06:25:57;;;;;;;6.03;5.07;;;;;;;19.59;54.82;101982.66;5053020;28;20049;-50
2023/01/07 06:28:25;;;;;;;7.40;5.13;;;;;;;19.58;54.65;101978.25;5053519;28;20053;-50
2023/01/07 06:30:52;;;;;;;7.10;5.72;;;;;;;19.59;54.58;101985.34;5053536;28;20442;-53
2023/01/07 06:33:20;;;;;;;6.95;5.38;;;;;;;19.58;54.65;101984.50;5053110;28;20391;-47
2023/01/07 06:35:47;;;;;;;7.05;5.55;;;;;;;19.59;54.67;101990.72;5053326;28;20052;-47
2023/01/07 06:38:14;;;;;;;6.07;4.85;;;;;;;19.58;54.53;101980.94;5053641;28;20041;-49
2023/01/07 06:40:43;;;;;;;5.82;4.75;;;;;;;19.58;54.65;101980.94;5052966;28;20434;-52
2023/01/07 06:43:10;;;;;;;5.88;5.10;;;;;;;19.57;54.61;101982.78;5053114;28;20049;-49
2023/01/07 06:45:38;;;;;;;6.57;4.25;;;;;;;19.57;54.75;101980.09;5053417;28;20045;-48
2023/01/07 06:48:07;;;;;;;5.85;4.63;;;;;;;19.57;54.55;101977.41;5053216;28;20479;-48
2023/01/07 06:50:35;;;;;;;6.40;4.80;;;;;;;19.57;54.64;101977.41;5044390;28;20368;-48
2023/01/07 06:53:02;;;;;;;6.00;4.53;;;;;;;19.57;54.87;101977.41;5032228;28;20506;-47
2023/01/07 06:55:29;;;;;;;5.20;4.53;;;;;;;19.57;54.74;101976.50;5051746;28;20049;-49
2023/01/07 06:57:57;;;;;;;6.57;5.22;;;;;;;19.57;54.72;101982.78;5052800;28;20041;-48
2023/01/07 07:00:24;;;;;;;5.88;4.20;;;;;;;19.56;54.75;101975.66;5052675;28;20472;-49
2023/01/07 07:02:51;;;;;;;5.25;4.57;;;;;;;19.56;54.71;101975.66;5053266;28;20056;-47
2023/01/07 07:05:19;;;;;;;6.07;4.90;;;;;;;19.57;54.63;101976.50;5053070;28;20052;-47
2023/01/07 07:07:46;;;;;;;5.45;4.38;;;;;;;19.56;54.53;101970.28;5052813;28;20048;-49
2023/01/07 07:10:14;;;;;;;5.00;4.45;;;;;;;19.56;54.64;101975.66;5053625;28;20057;-48
2023/01/07 07:12:41;;;;;;;5.05;4.00;;;;;;;19.57;54.52;101973.81;5052974;28;20490;-48
2023/01/07 07:15:08;;;;;;;5.75;4.65;;;;;;;19.57;54.57;101977.41;5052981;28;20056;-49
2023/01/07 07:17:36;;;;;;;6.18;4.85;;;;;;;19.56;54.65;101964.91;5053282;28;20116;-47
2023/01/07 07:20:04;;;;;;;6.00;4.65;;;;;;;19.56;54.57;101967.59;5053046;28;20386;-47
2023/01/07 07:22:31;;;;;;;6.28;4.30;;;;;;;19.57;54.52;101965.78;5052790;28;20513;-47
2023/01/07 07:24:58;;;;;;;4.88;4.18;;;;;;;19.57;54.47;101971.13;5053493;28;20048;-49
2023/01/07 07:27:25;;;;;;;6.30;4.40;;;;;;;19.56;54.19;101964.91;5052860;28;20056;-49
2023/01/07 07:29:53;;;;;;;5.35;4.47;;;;;;;19.57;54.58;101961.28;5052733;28;20486;-46
2023/01/07 07:32:21;;;;;;;4.80;3.80;;;;;;;19.57;54.43;101968.44;5054709;28;20055;-47
2023/01/07 07:34:48;;;;;;;5.13;4.45;;;;;;;19.57;54.43;101972.03;5057126;28;20056;-48
2023/01/07 07:37:16;;;;;;;5.68;4.13;;;;;;;19.57;54.36;101972.03;5056656;28;20401;-47
2023/01/07 07:39:43;;;;;;;5.80;4.50;;;;;;;19.57;54.55;101973.81;5057109;28;20386;-49
2023/01/07 07:42:10;;;;;;;5.38;4.10;;;;;;;19.57;54.43;101963.09;5056444;28;20474;-47
2023/01/07 07:44:38;;;;;;;5.50;4.32;;;;;;;19.56;54.48;101964.91;5056571;28;20049;-47
2023/01/07 07:47:05;;;;;;;5.20;4.28;;;;;;;19.57;54.58;101957.72;5056302;28;20040;-47
2023/01/07 07:49:32;;;;;;;4.72;3.53;;;;;;;19.56;54.66;101962.22;5056780;28;20045;-47
2023/01/07 07:52:00;;;;;;;5.45;4.03;;;;;;;19.56;54.56;101962.22;5046384;28;20396;-50
2023/01/07 07:54:27;;;;;;;5.10;4.25;;;;;;;19.56;54.53;101964.91;5035551;28;20053;-50
2023/01/07 07:56:57;;;;;;;5.82;4.40;;;;;;;19.56;54.52;101970.28;5036720;28;20041;-48
2023/01/07 07:59:24;;;;;;;4.95;3.88;;;;;;;19.56;54.56;101972.97;5035432;28;20045;-47
2023/01/07 08:01:51;;;;;;;4.53;3.53;;;;;;;19.56;54.57;101970.28;5036313;28;20053;-50
2023/01/07 08:04:19;;;;;;;5.18;4.00;;;;;;;19.56;54.57;101969.44;5036733;28;20125;-47
2023/01/07 08:06:46;;;;;;;4.70;3.75;;;;;;;19.56;54.54;101969.44;5036171;28;20072;-47
2023/01/07 08:09:13;;;;;;;5.55;3.95;;;;;;;19.55;54.61;101973.94;5036145;28;20046;-52
2023/01/07 08:11:41;;;;;;;6.88;4.03;;;;;;;19.56;54.67;101975.66;5054656;28;20051;-48
2023/01/07 08:14:08;;;;;;;5.70;4.20;;;;;;;19.55;54.56;101971.25;5056494;28;20045;-47
2023/01/07 08:16:36;;;;;;;4.22;3.35;;;;;;;19.55;54.56;101976.63;5056123;28;20052;-49
2023/01/07 08:19:03;;;;;;;5.25;3.95;;;;;;;19.56;54.62;101975.66;5055897;28;20041;-51
2023/01/07 08:21:30;;;;;;;4.55;3.60;;;;;;;19.56;54.67;101964.06;5055906;28;20056;-50
2023/01/07 08:23:58;;;;;;;4.22;3.35;;;;;;;19.55;54.66;101971.25;5055745;28;20041;-51
2023/01/07 08:26:25;;;;;;;4.95;3.78;;;;;;;19.55;54.62;101965.03;5055852;28;20056;-47
2023/01/07 08:28:53;;;;;;;5.15;4.07;;;;;;;19.55;54.58;101971.25;5056070;28;20049;-47
2023/01/07 08:31:20;;;;;;;5.60;4.20;;;;;;;19.56;54.60;101964.06;5055589;28;20419;-48
2023/01/07 08:33:47;;;;;;;4.40;3.78;;;;;;;19.55;54.80;101963.19;5055979;28;20045;-48
2023/01/07 08:36:15;;;;;;;6.93;3.72;;;;;;;19.56;54.63;101956.00;5055607;28;20406;-48
2023/01/07 08:38:51;;;;;;;5.00;3.65;;;;;;;19.56;54.81;101958.69;5055564;28;20045;-47
2023/01/07 08:41:20;;;;;;;4.65;3.50;;;;;;;19.57;54.77;101971.13;5055714;28;20053;-48
2023/01/07 08:43:49;;;;;;;6.57;3.88;;;;;;;19.56;55.02;101962.22;5054407;28;20056;-47
2023/01/07 08:46:17;;;;;;;6.15;3.92;;;;;;;19.57;55.10;101961.28;5055235;28;20049;-47
2023/01/07 08:48:45;;;;;;;6.18;3.80;;;;;;;19.58;54.87;101973.75;5055298;28;20383;-50
2023/01/07 08:51:12;;;;;;;9.75;3.80;;;;;;;19.58;54.76;101968.38;5055567;28;20049;-48
2023/01/07 08:53:39;;;;;;;5.25;4.00;;;;;;;19.59;54.96;101967.41;5037271;28;20060;-47
2023/01/07 08:56:07;;;;;;;4.85;3.60;;;;;;;19.61;54.82;101967.31;5055165;28;20510;-47
2023/01/07 08:58:35;;;;;;;5.97;3.55;;;;;;;19.60;54.91;101966.41;5055541;28;20052;-46
2023/01/07 09:01:04;;;;;;;7.45;4.25;;;;;;;19.61;54.66;101961.94;5055282;28;20049;-46
2023/01/07 09:03:33;;;;;;;5.03;3.47;;;;;;;19.60;54.63;101969.09;5054915;28;20076;-47
2023/01/07 09:06:03;;;;;;;7.00;4.25;;;;;;;19.59;54.52;101967.41;5055412;28;20045;-46
2023/01/07 09:08:31;;;;;;;8.00;4.70;;;;;;;19.60;53.01;101970.94;5054681;28;20048;-46
2023/01/07 09:10:58;;;;;;;9.27;5.45;;;;;;;19.59;52.73;101966.53;5055274;28;20056;-48
2023/01/07 09:13:25;;;;;;;8.20;5.90;;;;;;;19.58;52.36;101979.13;5054947;28;20048;-47
2023/01/07 09:15:53;;;;;;;6.07;4.95;;;;;;;19.58;52.64;101978.25;5054763;28;20071;-46
2023/01/07 09:18:20;;;;;;;9.07;5.88;;;;;;;19.57;51.14;101977.41;5055125;28;20049;-46
2023/01/07 09:20:47;;;;;;;10.02;6.68;;;;;;;19.56;50.53;101981.03;5054855;28;20060;-48
2023/01/07 09:23:14;;;;;;;10.30;5.30;;;;;;;19.56;50.54;101985.53;5054943;28;20045;-48
2023/01/07 09:25:42;;;;;;;7.63;6.10;;;;;;;19.55;50.50;101982.00;5055100;28;20048;-46
2023/01/07 09:28:09;;;;;;;7.00;5.95;;;;;;;19.53;49.58;101983.94;5053141;28;20041;-48
2023/01/07 09:30:36;;;;;;;8.00;6.28;;;;;;;19.52;49.85;101987.56;5043274;28;20037;-48
2023/01/07 09:33:04;;;;;;;8.68;6.45;;;;;;;19.39;46.56;101986.69;5054738;28;20052;-49
2023/01/07 09:35:32;;;;;;;10.50;7.32;;;;;;;19.16;46.49;101994.50;5038461;28;20057;-47
2023/01/07 09:37:59;;;;;;;8.50;7.30;;;;;;;18.99;47.65;101987.53;5034509;28;20375;-45
2023/01/07 09:40:35;;;;;;;8.57;7.13;;;;;;;18.83;46.64;101988.66;5034481;28;20068;-48
2023/01/07 09:43:14;;;;;;;7.93;6.47;;;;;;;18.63;46.85;101980.03;5034638;28;20076;-47
2023/01/07 09:45:49;;;;;;;7.90;6.63;;;;;;;18.52;47.49;101982.59;5034340;28;20052;-46
2023/01/07 09:48:28;;;;;;;10.18;6.57;;;;;;;18.42;47.40;101982.28;5052409;28;20045;-45
2023/01/07 09:51:01;;;;;;;9.20;7.07;;;;;;;18.32;46.93;101983.84;5054190;28;20045;-49
2023/01/07 09:53:36;;;;;;;8.77;6.40;;;;;;;18.25;47.69;101983.38;5049470;28;20045;-46
2023/01/07 09:56:30;;;;;;;7.35;6.10;;;;;;;18.20;47.88;101977.44;5033070;28;20045;-56
2023/01/07 09:58:59;;;;;;;10.05;6.40;;;;;;;18.28;49.82;101975.13;5033777;28;20061;-56
2023/01/07 10:01:32;;;;;;;6.47;4.53;;;;;;;18.42;50.00;101981.44;5033920;28;20395;-56
2023/01/07 10:04:15;;;;;;;8.05;5.47;;;;;;;18.57;50.50;101976.91;5034426;28;20503;-56
2023/01/07 10:07:01;;;;;;;9.17;5.40;;;;;;;18.68;50.87;101974.41;5033723;28;20050;-56
2023/01/07 10:09:43;;;;;;;8.30;4.75;;;;;;;18.78;50.56;101963.00;5034360;28;20037;-55
2023/01/07 10:12:29;;;;;;;8.18;4.70;;;;;;;18.86;50.59;101961.63;5053678;28;20045;-56
2023/01/07 10:15:14;;;;;;;6.85;4.88;;;;;;;18.95;50.60;101952.97;5053472;28;20513;-55
2023/01/07 10:18:12;;;;;;;9.20;4.75;;;;;;;19.03;50.85;101954.16;5053620;28;20052;-50
2023/01/07 10:21:03;;;;;;;10.30;5.13;;;;;;;19.09;51.07;101949.38;5053538;28;20489;-55
2023/01/07 10:23:37;;;;;;;7.25;4.50;;;;;;;19.11;50.94;101952.81;5053414;28;20048;-55
2023/01/07 10:26:12;;;;;;;8.75;4.68;;;;;;;19.13;50.93;101954.44;5050066;28;20045;-53
2023/01/07 10:28:50;;;;;;;8.90;5.05;;;;;;;19.15;50.27;101952.50;5042874;28;20052;-54
2023/01/07 10:31:23;;;;;;;6.85;5.60;;;;;;;19.16;49.13;101948.88;5053120;28;20041;-54
2023/01/07 10:33:51;;;;;;;10.15;6.53;;;;;;;19.16;48.12;101934.56;5051020;28;20079;-53
2023/01/07 10:36:26;;;;;;;8.05;7.05;;;;;;;19.17;47.41;101931.78;5053384;28;20475;-54
2023/01/07 10:39:33;;;;;;;8.77;6.55;;;;;;;19.18;47.91;101930.81;5053795;28;20048;-54
2023/01/07 10:42:42;;;;;;;7.78;6.25;;;;;;;19.19;48.15;101929.84;5053498;28;20390;-56
2023/01/07 10:45:42;;;;;;;8.68;6.45;;;;;;;19.20;47.41;101917.28;5039220;28;20054;-53
2023/01/07 10:48:28;;;;;;;7.40;5.25;;;;;;;19.22;50.05;101916.22;5033229;28;20052;-54
2023/01/07 10:51:16;;;;;;;6.70;4.75;;;;;;;19.23;49.99;101911.69;5033191;28;20049;-53
2023/01/07 10:53:53;;;;;;;6.45;4.93;;;;;;;19.24;50.32;101906.25;5033800;28;20053;-54
2023/01/07 10:56:38;;;;;;;7.40;4.22;;;;;;;19.25;50.33;101899.91;5033463;28;20475;-55
2023/01/07 10:59:13;;;;;;;5.88;4.85;;;;;;;19.28;50.45;101904.19;5033311;28;20057;-54
2023/01/07 11:01:47;;;;;;;7.90;4.60;;;;;;;19.29;50.60;101902.38;5033517;28;20056;-54
2023/01/07 11:04:15;;;;;;;4.82;4.10;;;;;;;19.30;50.47;101901.41;5033307;28;20045;-55
2023/01/07 11:06:48;;;;;;;4.93;4.13;;;;;;;19.30;50.82;101894.22;5032632;28;20069;-55
2023/01/07 11:09:18;;;;;;;;;;;;;;;19.30;50.57;101896.03;5033981;28;20045;-55
2023/01/07 11:11:49;;;;;;;6.63;4.43;;;;;;;19.31;50.71;101892.38;5052141;28;19925;-51
2023/01/07 11:14:24;;;;;;;9.20;5.53;;;;;;;19.32;49.89;101888.72;5052481;28;20144;-55
2023/01/07 11:17:23;;;;;;;6.65;5.00;;;;;;;19.32;49.53;101900.31;5053161;28;20049;-54
2023/01/07 11:19:51;;;;;;;6.72;5.10;;;;;;;19.33;49.52;101890.47;5052405;28;20056;-54
2023/01/07 11:22:30;;;;;;;6.63;5.32;;;;;;;19.33;49.43;101887.78;5052965;28;20045;-51
2023/01/07 11:25:00;;;;;;;8.50;4.88;;;;;;;19.33;49.07;101888.66;5053256;28;20060;-53
2023/01/07 11:27:30;;;;;;;6.97;5.45;;;;;;;19.34;49.29;101878.75;5053587;28;20053;-54
2023/01/07 11:30:02;;;;;;;7.13;5.53;;;;;;;19.35;48.84;101872.41;5052858;28;20045;-50
2023/01/07 11:32:33;;;;;;;6.57;4.97;;;;;;;19.34;49.51;101873.38;5053607;28;20064;-55
2023/01/07 11:35:04;;;;;;;6.75;5.15;;;;;;;19.35;49.87;101875.97;5053241;28;20049;-55
2023/01/07 11:37:38;;;;;;;6.53;4.88;;;;;;;19.35;49.98;101881.31;5049513;28;20050;-56
2023/01/07 11:40:11;;;;;;;9.20;6.55;;;;;;;19.30;47.68;101875.41;5052794;28;20064;-56
2023/01/07 11:42:57;;;;;;;;;;;;;;;19.30;49.60;101867.38;5053057;28;20061;-56
2023/01/07 11:45:34;;;;;;;6.53;5.20;;;;;;;19.32;49.70;101864.56;5052610;28;19921;-53
2023/01/07 11:48:04;;;;;;;7.38;5.22;;;;;;;19.32;50.11;101843.94;5052646;28;20048;-53